createdAt,value
2018-04-14T00:01:51.713Z,35.47
2018-04-14T00:03:54.492Z,34.97
2018-04-14T00:05:57.241Z,34.20
2018-04-14T00:08:00.307Z,49.73
2018-04-14T00:10:03.070Z,74.53
2018-04-14T00:12:05.798Z,90.47
2018-04-14T00:14:08.568Z,49.43
2018-04-14T00:16:11.311Z,34.53
2018-04-14T00:18:14.069Z,34.87
2018-04-14T00:20:16.846Z,33.60
2018-04-14T00:22:19.574Z,35.73
2018-04-14T00:24:22.335Z,34.10
2018-04-14T00:26:25.070Z,34.90
2018-04-14T00:28:27.802Z,33.33
2018-04-14T00:30:30.565Z,34.53
2018-04-14T00:32:33.298Z,33.23
2018-04-14T00:34:36.043Z,33.87
2018-04-14T00:36:38.806Z,33.40
2018-04-14T00:38:41.547Z,33.83
2018-04-14T00:40:44.290Z,36.23
2018-04-14T00:42:47.039Z,32.70
2018-04-14T00:44:49.771Z,33.33
2018-04-14T00:46:52.515Z,33.77
2018-04-14T00:48:55.280Z,34.90
2018-04-14T00:50:58.055Z,33.77
2018-04-14T00:53:07.004Z,34.60
2018-04-14T00:55:10.664Z,34.60
2018-04-14T00:57:13.530Z,34.93
2018-04-14T00:59:16.357Z,33.73
2018-04-14T01:01:19.148Z,33.93
2018-04-14T01:03:21.911Z,33.80
2018-04-14T01:05:24.633Z,34.57
2018-04-14T01:07:27.398Z,32.60
2018-04-14T01:09:30.166Z,34.73
2018-04-14T01:11:32.914Z,36.77
2018-04-14T01:13:35.640Z,36.60
2018-04-14T01:15:38.374Z,37.17
2018-04-14T01:17:41.097Z,36.10
2018-04-14T01:19:43.866Z,36.97
2018-04-14T01:21:46.593Z,39.07
2018-04-14T01:23:49.326Z,36.47
2018-04-14T01:25:52.088Z,38.37
2018-04-14T01:27:54.842Z,38.80
2018-04-14T01:29:57.569Z,41.00
2018-04-14T01:32:00.439Z,38.10
2018-04-14T01:34:03.178Z,38.50
2018-04-14T01:36:05.906Z,41.17
2018-04-14T01:38:08.666Z,39.20
2018-04-14T01:40:11.401Z,41.93
2018-04-14T01:42:14.184Z,42.57
2018-04-14T01:44:16.934Z,44.30
2018-04-14T01:46:19.658Z,41.37
2018-04-14T01:48:22.386Z,40.07
2018-04-14T01:50:25.102Z,51.83
2018-04-14T01:52:27.848Z,45.47
2018-04-14T01:54:30.566Z,45.60
2018-04-14T01:56:33.281Z,47.13
2018-04-14T01:58:36.279Z,44.53
2018-04-14T02:00:39.018Z,46.00
2018-04-14T02:02:41.737Z,41.60
2018-04-14T02:04:44.481Z,44.33
2018-04-14T02:06:47.193Z,47.67
2018-04-14T02:08:49.920Z,45.70
2018-04-14T02:10:52.809Z,48.07
2018-04-14T02:12:55.543Z,47.40
2018-04-14T02:14:58.268Z,51.23
2018-04-14T02:17:01.012Z,49.03
2018-04-14T02:19:03.738Z,50.30
2018-04-14T02:21:06.458Z,52.80
2018-04-14T02:23:09.280Z,52.63
2018-04-14T02:25:12.002Z,50.70
2018-04-14T02:27:14.735Z,50.93
2018-04-14T02:29:17.502Z,50.70
2018-04-14T02:31:20.244Z,48.53
2018-04-14T02:33:23.003Z,52.20
2018-04-14T02:35:25.739Z,49.22
2018-04-14T02:37:28.517Z,48.73
2018-04-14T02:39:31.279Z,49.40
2018-04-14T02:41:34.042Z,46.85
2018-04-14T02:43:36.814Z,50.10
2018-04-14T02:45:39.558Z,49.85
2018-04-14T02:47:42.306Z,49.60
2018-04-14T02:49:45.085Z,49.53
2018-04-14T02:51:47.846Z,48.17
2018-04-14T02:53:50.582Z,44.08
2018-04-14T02:55:53.303Z,45.15
2018-04-14T02:57:56.048Z,44.97
2018-04-14T02:59:58.772Z,44.72
2018-04-14T03:02:01.503Z,45.05
2018-04-14T03:04:04.399Z,46.10
2018-04-14T03:06:07.147Z,45.97
2018-04-14T03:08:09.900Z,43.00
2018-04-14T03:10:12.650Z,44.03
2018-04-14T03:12:15.663Z,43.47
2018-04-14T03:14:18.386Z,36.55
2018-04-14T03:16:21.131Z,45.80
2018-04-14T03:18:23.876Z,51.63
2018-04-14T03:20:26.620Z,40.25
2018-04-14T03:22:29.351Z,42.10
2018-04-14T03:24:32.102Z,42.90
2018-04-14T03:26:34.839Z,53.03
2018-04-14T03:28:37.575Z,44.03
2018-04-14T03:30:40.484Z,41.40
2018-04-14T03:32:43.237Z,45.63
2018-04-14T03:34:45.986Z,39.83
2018-04-14T03:36:48.720Z,41.67
2018-04-14T03:38:51.455Z,39.30
2018-04-14T03:40:54.205Z,39.63
2018-04-14T03:42:56.934Z,37.53
2018-04-14T03:44:59.670Z,37.55
2018-04-14T03:47:02.404Z,33.67
2018-04-14T03:49:05.129Z,32.25
2018-04-14T03:51:07.871Z,33.63
2018-04-14T03:53:10.638Z,31.87
2018-04-14T03:55:13.370Z,29.67
2018-04-14T03:57:16.126Z,30.07
2018-04-14T03:59:19.235Z,27.67
2018-04-14T04:01:21.970Z,30.77
2018-04-14T04:03:24.698Z,28.25
2018-04-14T04:05:27.439Z,26.75
2018-04-14T04:07:30.183Z,29.53
2018-04-14T04:09:32.928Z,30.15
2018-04-14T04:11:35.682Z,29.75
2018-04-14T04:13:38.702Z,26.80
2018-04-14T04:15:41.452Z,29.30
2018-04-14T04:17:44.195Z,30.03
2018-04-14T04:19:53.232Z,25.23
2018-04-14T04:22:02.284Z,24.45
2018-04-14T04:24:11.153Z,25.77
2018-04-14T04:26:13.905Z,23.80
2018-04-14T04:28:16.717Z,22.10
2018-04-14T04:30:19.407Z,22.27
2018-04-14T04:32:22.147Z,20.83
2018-04-14T04:34:24.901Z,22.77
2018-04-14T04:36:28.212Z,21.92
2018-04-14T04:38:30.994Z,21.52
2018-04-14T04:40:33.731Z,20.98
2018-04-14T04:42:36.514Z,20.33
2018-04-14T04:44:39.589Z,19.45
2018-04-14T04:46:42.360Z,18.85
2018-04-14T04:48:45.244Z,20.02
2018-04-14T04:50:47.987Z,19.17
2018-04-14T04:52:50.726Z,14.55
2018-04-14T04:54:53.473Z,16.70
2018-04-14T04:56:56.315Z,14.43
2018-04-14T04:58:59.056Z,16.70
2018-04-14T05:01:01.933Z,15.70
2018-04-14T05:03:04.883Z,16.08
2018-04-14T05:05:07.647Z,12.07
2018-04-14T05:07:10.420Z,13.02
2018-04-14T05:09:13.184Z,12.93
2018-04-14T05:11:15.933Z,11.88
2018-04-14T05:13:18.716Z,13.30
2018-04-14T05:15:21.435Z,12.70
2018-04-14T05:17:24.208Z,12.65
2018-04-14T05:19:27.078Z,12.52
2018-04-14T05:21:29.828Z,12.68
2018-04-14T05:23:32.619Z,12.40
2018-04-14T05:25:35.366Z,10.70
2018-04-14T05:27:38.165Z,10.90
2018-04-14T05:29:40.909Z,12.00
2018-04-14T05:31:43.757Z,10.82
2018-04-14T05:33:46.505Z,11.32
2018-04-14T05:35:49.237Z,10.15
2018-04-14T05:37:51.999Z,9.70
2018-04-14T05:39:54.756Z,10.63
2018-04-14T05:41:57.506Z,10.27
2018-04-14T05:44:00.275Z,10.73
2018-04-14T05:46:03.051Z,9.82
2018-04-14T05:48:05.814Z,10.30
2018-04-14T05:50:08.578Z,10.00
2018-04-14T05:52:11.320Z,11.37
2018-04-14T05:54:14.074Z,11.83
2018-04-14T05:56:16.820Z,11.32
2018-04-14T05:58:19.548Z,11.10
2018-04-14T06:00:22.305Z,11.80
2018-04-14T06:02:25.059Z,12.43
2018-04-14T06:04:27.801Z,13.13
2018-04-14T06:06:30.538Z,12.77
2018-04-14T06:08:33.311Z,12.98
2018-04-14T06:10:36.042Z,10.90
2018-04-14T06:12:38.772Z,11.40
2018-04-14T06:14:41.538Z,12.57
2018-04-14T06:16:44.278Z,12.70
2018-04-14T06:18:47.039Z,10.93
2018-04-14T06:20:49.801Z,9.60
2018-04-14T06:22:52.542Z,10.63
2018-04-14T06:24:55.336Z,11.65
2018-04-14T06:26:58.081Z,11.07
2018-04-14T06:29:00.798Z,10.93
2018-04-14T06:31:03.525Z,8.50
2018-04-14T06:33:06.273Z,10.68
2018-04-14T06:35:09.003Z,10.17
2018-04-14T06:37:12.018Z,9.83
2018-04-14T06:39:14.859Z,8.23
2018-04-14T06:43:37.645Z,9.07
2018-04-14T06:45:40.941Z,8.50
2018-04-14T06:47:43.800Z,8.17
2018-04-14T06:49:52.542Z,7.87
2018-04-14T06:51:55.354Z,8.47
2018-04-14T06:53:58.137Z,9.10
2018-04-14T06:56:00.995Z,7.30
2018-04-14T06:58:03.786Z,7.70
2018-04-14T07:00:06.574Z,7.80
2018-04-14T07:02:09.349Z,8.53
2018-04-14T07:04:12.110Z,8.17
2018-04-14T07:06:14.866Z,9.53
2018-04-14T07:08:17.934Z,8.37
2018-04-14T07:10:20.680Z,7.40
2018-04-14T07:12:23.406Z,6.80
2018-04-14T07:14:26.513Z,7.20
2018-04-14T07:16:29.285Z,6.90
2018-04-14T07:18:32.014Z,8.20
2018-04-14T07:20:34.815Z,8.20
2018-04-14T07:22:37.625Z,6.90
2018-04-14T07:24:40.397Z,9.07
2018-04-14T07:26:43.214Z,8.47
2018-04-14T07:28:45.946Z,9.50
2018-04-14T07:30:48.667Z,6.20
2018-04-14T07:32:51.684Z,8.53
2018-04-14T07:34:54.533Z,8.90
2018-04-14T07:36:57.279Z,8.70
2018-04-14T07:39:00.062Z,8.50
2018-04-14T07:41:02.800Z,9.20
2018-04-14T07:43:05.518Z,9.37
2018-04-14T07:45:08.236Z,9.50
2018-04-14T07:47:11.052Z,7.93
2018-04-14T07:49:13.979Z,8.60
2018-04-14T07:51:16.788Z,8.93
2018-04-14T07:53:19.964Z,8.43
2018-04-14T07:55:22.741Z,8.77
2018-04-14T07:57:25.507Z,9.47
2018-04-14T07:59:28.279Z,9.33
2018-04-14T08:01:31.068Z,8.83
2018-04-14T08:03:33.828Z,8.40
2018-04-14T08:05:36.681Z,9.67
2018-04-14T08:07:39.474Z,9.20
2018-04-14T08:09:42.242Z,8.50
2018-04-14T08:11:45.017Z,9.17
2018-04-14T08:13:47.771Z,10.77
2018-04-14T08:15:54.483Z,10.53
2018-04-14T08:17:57.499Z,8.53
2018-04-14T08:20:00.298Z,8.63
2018-04-14T08:22:03.319Z,9.00
2018-04-14T08:24:06.128Z,9.23
2018-04-14T08:26:09.257Z,8.50
2018-04-14T08:28:12.086Z,8.57
2018-04-14T08:30:14.885Z,9.80
2018-04-14T08:32:17.660Z,8.13
2018-04-14T08:34:20.753Z,7.70
2018-04-14T08:36:23.530Z,9.17
2018-04-14T08:38:26.347Z,9.07
2018-04-14T08:40:29.097Z,10.38
2018-04-14T08:42:31.846Z,9.57
2018-04-14T08:44:34.626Z,10.03
2018-04-14T08:46:37.395Z,11.00
2018-04-14T08:48:40.156Z,9.00
2018-04-14T08:50:42.889Z,8.30
2018-04-14T08:52:45.761Z,8.80
2018-04-14T08:54:49.871Z,9.20
2018-04-14T08:56:52.742Z,8.10
2018-04-14T08:58:55.474Z,10.10
2018-04-14T09:00:58.221Z,9.43
2018-04-14T09:03:01.090Z,10.00
2018-04-14T09:05:03.833Z,10.47
2018-04-14T09:07:06.586Z,11.67
2018-04-14T09:09:09.388Z,11.02
2018-04-14T09:11:12.070Z,10.70
2018-04-14T09:13:14.819Z,10.85
2018-04-14T09:15:17.561Z,9.30
2018-04-14T09:17:20.294Z,9.23
2018-04-14T09:19:23.015Z,9.60
2018-04-14T09:21:25.747Z,7.97
2018-04-14T09:23:28.465Z,12.68
2018-04-14T09:25:31.183Z,9.77
2018-04-14T09:27:34.086Z,9.80
2018-04-14T09:29:36.798Z,9.93
2018-04-14T09:31:39.526Z,9.87
2018-04-14T09:33:42.277Z,10.20
2018-04-14T09:35:45.032Z,10.17
2018-04-14T09:37:49.011Z,10.60
2018-04-14T09:39:51.963Z,10.00
2018-04-14T09:41:54.821Z,11.85
2018-04-14T09:43:57.620Z,12.20
2018-04-14T09:46:00.450Z,11.30
2018-04-14T09:48:03.187Z,10.57
2018-04-14T09:50:05.916Z,11.73
2018-04-14T09:52:08.983Z,11.60
2018-04-14T09:54:11.703Z,10.30
2018-04-14T09:56:17.934Z,10.88
2018-04-14T10:00:45.870Z,11.95
2018-04-14T10:02:48.679Z,12.17
2018-04-14T10:04:51.463Z,10.80
2018-04-14T10:06:56.855Z,12.32
2018-04-14T10:08:59.786Z,25.05
2018-04-14T10:11:02.801Z,15.90
2018-04-14T10:13:05.787Z,11.60
2018-04-14T10:15:08.840Z,12.18
2018-04-14T10:17:11.702Z,12.43
2018-04-14T10:19:14.555Z,11.88
2018-04-14T10:21:17.606Z,12.40
2018-04-14T10:23:20.490Z,14.00
2018-04-14T10:25:23.507Z,12.80
2018-04-14T10:27:26.349Z,14.27
2018-04-14T10:29:29.197Z,13.60
2018-04-14T10:31:31.984Z,11.23
2018-04-14T10:33:34.911Z,12.40
2018-04-14T10:35:38.378Z,11.30
2018-04-14T10:37:41.329Z,10.37
2018-04-14T10:39:44.146Z,11.20
2018-04-14T10:41:47.071Z,11.55
2018-04-14T10:43:50.432Z,11.27
2018-04-14T10:45:55.142Z,10.20
2018-04-14T10:47:58.093Z,10.57
2018-04-14T10:50:00.906Z,11.77
2018-04-14T10:52:03.657Z,10.50
2018-04-14T10:54:06.422Z,10.50
2018-04-14T10:56:09.237Z,10.02
2018-04-14T10:58:12.349Z,9.43
2018-04-14T11:00:15.089Z,10.65
2018-04-14T11:02:17.918Z,10.20
2018-04-14T11:04:20.739Z,11.95
2018-04-14T11:06:23.582Z,9.23
2018-04-14T11:08:26.345Z,9.77
2018-04-14T11:10:29.363Z,9.98
2018-04-14T11:12:32.265Z,9.23
2018-04-14T11:14:35.118Z,9.18
2018-04-14T11:16:37.907Z,9.90
2018-04-14T11:18:40.685Z,10.02
2018-04-14T11:20:43.505Z,9.00
2018-04-14T11:22:46.269Z,10.05
2018-04-14T11:24:49.009Z,9.10
2018-04-14T11:26:51.761Z,9.82
2018-04-14T11:29:00.049Z,8.93
2018-04-14T11:31:06.652Z,9.43
2018-04-14T11:33:14.232Z,9.70
2018-04-14T11:35:17.350Z,9.95
2018-04-14T11:37:20.098Z,9.32
2018-04-14T11:39:22.853Z,9.85
2018-04-14T11:41:25.614Z,8.50
2018-04-14T11:43:28.379Z,8.70
2018-04-14T11:45:31.128Z,9.63
2018-04-14T11:47:33.903Z,8.82
2018-04-14T11:49:36.660Z,10.13
2018-04-14T11:51:39.430Z,10.67
2018-04-14T11:53:42.212Z,10.07
2018-04-14T11:55:44.977Z,9.70
2018-04-14T11:57:47.795Z,9.50
2018-04-14T11:59:50.546Z,8.55
2018-04-14T12:01:53.295Z,9.07
2018-04-14T12:03:56.058Z,8.93
2018-04-14T12:05:58.808Z,9.27
2018-04-14T12:08:01.581Z,9.10
2018-04-14T12:10:04.425Z,8.57
2018-04-14T12:12:07.177Z,9.35
2018-04-14T12:14:09.949Z,9.68
2018-04-14T12:16:12.699Z,9.73
2018-04-14T12:18:15.472Z,8.77
2018-04-14T12:20:18.325Z,8.13
2018-04-14T12:22:21.444Z,8.68
2018-04-14T12:24:24.190Z,7.93
2018-04-14T12:26:26.941Z,8.90
2018-04-14T12:28:32.455Z,8.77
2018-04-14T12:30:35.210Z,8.60
2018-04-14T12:32:37.945Z,8.80
2018-04-14T12:34:40.753Z,9.25
2018-04-14T12:36:43.500Z,9.27
2018-04-14T12:38:46.262Z,9.17
2018-04-14T12:40:49.015Z,8.50
2018-04-14T12:42:51.800Z,9.37
2018-04-14T12:44:54.567Z,10.30
2018-04-14T12:46:57.625Z,9.43
2018-04-14T12:49:00.387Z,10.05
2018-04-14T12:51:03.135Z,7.53
2018-04-14T12:53:05.901Z,9.52
2018-04-14T12:55:08.697Z,8.70
2018-04-14T12:57:11.443Z,9.88
2018-04-14T12:59:14.246Z,9.20
2018-04-14T13:01:16.991Z,9.95
2018-04-14T13:03:19.739Z,9.43
2018-04-14T13:05:22.627Z,11.47
2018-04-14T13:07:25.390Z,13.05
2018-04-14T13:09:28.132Z,13.98
2018-04-14T13:11:30.974Z,12.68
2018-04-14T13:13:33.773Z,12.90
2018-04-14T13:15:36.597Z,13.68
2018-04-14T13:17:39.361Z,14.70
2018-04-14T13:19:42.145Z,14.10
2018-04-14T13:21:44.910Z,14.50
2018-04-14T13:23:47.705Z,13.43
2018-04-14T13:25:50.463Z,14.77
2018-04-14T13:27:53.395Z,12.37
2018-04-14T13:29:56.151Z,12.50
2018-04-14T13:32:05.367Z,13.65
2018-04-14T13:34:08.134Z,13.35
2018-04-14T13:36:10.882Z,13.05
2018-04-14T13:38:13.650Z,14.13
2018-04-14T13:40:16.447Z,13.90
2018-04-14T13:42:19.222Z,14.02
2018-04-14T13:44:21.991Z,15.18
2018-04-14T13:46:24.818Z,17.23
2018-04-14T13:48:27.655Z,14.70
2018-04-14T13:50:30.389Z,14.70
2018-04-14T13:52:33.143Z,14.60
2018-04-14T13:54:35.890Z,15.50
2018-04-14T13:56:39.020Z,15.17
2018-04-14T13:58:41.763Z,14.90
2018-04-14T14:00:44.516Z,17.30
2018-04-14T14:02:47.282Z,15.50
2018-04-14T14:04:50.106Z,17.45
2018-04-14T14:06:52.867Z,18.90
2018-04-14T14:08:55.639Z,17.97
2018-04-14T14:10:58.390Z,17.30
2018-04-14T14:13:01.139Z,17.98
2018-04-14T14:15:03.900Z,19.17
2018-04-14T14:17:06.673Z,19.25
2018-04-14T14:19:09.438Z,18.13
2018-04-14T14:21:12.295Z,19.47
2018-04-14T14:23:15.081Z,19.87
2018-04-14T14:25:17.828Z,18.07
2018-04-14T14:27:20.611Z,18.90
2018-04-14T14:29:23.371Z,19.40
2018-04-14T14:31:26.119Z,18.77
2018-04-14T14:33:28.910Z,20.10
2018-04-14T14:35:31.656Z,19.20
2018-04-14T14:37:34.419Z,20.43
2018-04-14T14:39:37.239Z,22.60
2018-04-14T14:41:40.013Z,22.20
2018-04-14T14:43:42.763Z,21.23
2018-04-14T14:45:45.566Z,22.42
2018-04-14T14:47:48.298Z,21.73
2018-04-14T14:49:57.282Z,23.73
2018-04-14T14:52:00.051Z,19.33
2018-04-14T14:54:02.834Z,22.17
2018-04-14T14:56:05.595Z,23.65
2018-04-14T14:58:08.358Z,24.73
2018-04-14T15:00:11.099Z,19.77
2018-04-14T15:02:13.840Z,21.50
2018-04-14T15:04:16.592Z,22.90
2018-04-14T15:06:19.399Z,22.00
2018-04-14T15:08:22.155Z,22.30
2018-04-14T15:10:24.930Z,21.95
2018-04-14T15:12:27.675Z,22.23
2018-04-14T15:14:30.418Z,24.63
2018-04-14T15:16:33.193Z,24.17
2018-04-14T15:18:35.944Z,24.67
2018-04-14T15:20:38.706Z,24.67
2018-04-14T15:22:41.446Z,25.20
2018-04-14T15:24:44.203Z,24.90
2018-04-14T15:26:46.959Z,25.47
2018-04-14T15:28:49.719Z,25.30
2018-04-14T15:30:52.778Z,25.27
2018-04-14T15:32:55.532Z,25.73
2018-04-14T15:34:58.287Z,28.20
2018-04-14T15:37:01.046Z,28.20
2018-04-14T15:39:03.942Z,29.63
2018-04-14T15:41:06.763Z,28.83
2018-04-14T15:43:09.540Z,29.53
2018-04-14T15:45:12.290Z,31.33
2018-04-14T15:47:15.037Z,29.23
2018-04-14T15:49:17.917Z,30.47
2018-04-14T15:51:20.694Z,28.27
2018-04-14T15:53:23.477Z,25.77
2018-04-14T15:55:26.235Z,22.90
2018-04-14T15:57:28.978Z,24.42
2018-04-14T15:59:31.723Z,24.30
2018-04-14T16:01:34.530Z,25.97
2018-04-14T16:03:44.627Z,27.33
2018-04-14T16:05:40.147Z,28.02
2018-04-14T16:07:43.274Z,27.97
2018-04-14T16:09:46.038Z,26.92
2018-04-14T16:11:48.811Z,30.97
2018-04-14T16:13:51.745Z,28.37
2018-04-14T16:15:54.505Z,30.57
2018-04-14T16:17:57.247Z,29.27
2018-04-14T16:20:00.047Z,29.52
2018-04-14T16:22:02.824Z,31.30
2018-04-14T16:24:05.578Z,31.90
2018-04-14T16:26:08.362Z,36.20
2018-04-14T16:28:11.146Z,33.25
2018-04-14T16:30:14.006Z,32.10
2018-04-14T16:32:16.775Z,33.47
2018-04-14T16:34:19.553Z,33.97
2018-04-14T16:36:22.314Z,34.47
2018-04-14T16:38:25.049Z,32.80
2018-04-14T16:40:27.814Z,33.80
2018-04-14T16:42:30.726Z,36.10
2018-04-14T16:44:33.492Z,35.73
2018-04-14T16:46:36.271Z,35.38
2018-04-14T16:48:39.139Z,34.60
2018-04-14T16:50:41.895Z,35.53
2018-04-14T16:52:44.654Z,33.17
2018-04-14T16:54:47.721Z,35.07
2018-04-14T16:56:50.672Z,35.07
2018-04-14T16:58:53.411Z,29.57
2018-04-14T17:00:56.166Z,35.75
2018-04-14T17:02:58.933Z,35.83
2018-04-14T17:05:01.717Z,34.45
2018-04-14T17:07:04.484Z,33.50
2018-04-14T17:09:07.258Z,34.53
2018-04-14T17:11:10.004Z,38.97
2018-04-14T17:13:13.068Z,37.80
2018-04-14T17:15:15.838Z,34.03
2018-04-14T17:17:18.657Z,32.10
2018-04-14T17:19:21.762Z,33.17
2018-04-14T17:21:24.511Z,35.37
2018-04-14T17:23:27.282Z,33.90
2018-04-14T17:25:30.058Z,34.40
2018-04-14T17:27:32.820Z,33.83
2018-04-14T17:29:35.581Z,32.97
2018-04-14T17:31:38.343Z,32.57
2018-04-14T17:33:41.153Z,35.07
2018-04-14T17:35:43.929Z,34.37
2018-04-14T17:37:46.676Z,37.53
2018-04-14T17:39:49.464Z,35.27
2018-04-14T17:41:52.241Z,35.13
2018-04-14T17:43:54.985Z,33.97
2018-04-14T17:45:57.749Z,39.53
2018-04-14T17:48:00.503Z,33.97
2018-04-14T17:50:03.333Z,36.93
2018-04-14T17:52:06.245Z,32.73
2018-04-14T17:54:08.998Z,35.40
2018-04-14T17:56:11.790Z,36.97
2018-04-14T17:58:14.703Z,35.43
2018-04-14T18:00:17.462Z,34.17
2018-04-14T18:02:20.210Z,33.37
2018-04-14T18:04:23.129Z,35.47
2018-04-14T18:06:25.866Z,34.17
2018-04-14T18:08:28.620Z,38.73
2018-04-14T18:10:31.388Z,40.70
2018-04-14T18:12:34.133Z,35.17
2018-04-14T18:14:36.880Z,37.77
2018-04-14T18:16:39.706Z,34.10
2018-04-14T18:18:42.518Z,36.80
2018-04-14T18:20:46.186Z,38.23
2018-04-14T18:22:49.081Z,38.80
2018-04-14T18:24:51.826Z,38.43
2018-04-14T18:26:54.574Z,37.40
2018-04-14T18:28:57.384Z,35.37
2018-04-14T18:31:00.148Z,34.83
2018-04-14T18:33:02.892Z,36.37
2018-04-14T18:35:05.738Z,37.37
2018-04-14T18:37:08.494Z,38.57
2018-04-14T18:39:11.271Z,36.70
2018-04-14T18:41:14.040Z,37.53
2018-04-14T18:43:16.776Z,38.47
2018-04-14T18:45:19.613Z,40.60
2018-04-14T18:47:22.369Z,37.50
2018-04-14T18:49:25.103Z,37.63
2018-04-14T18:51:27.866Z,42.33
2018-04-14T18:53:30.984Z,36.60
2018-04-14T18:55:33.722Z,36.63
2018-04-14T18:57:36.518Z,36.07
2018-04-14T18:59:39.384Z,36.27
2018-04-14T19:01:42.140Z,37.03
2018-04-14T19:03:45.015Z,38.40
2018-04-14T19:05:47.937Z,37.53
2018-04-14T19:07:50.701Z,36.30
2018-04-14T19:09:54.313Z,39.07
2018-04-14T19:11:57.880Z,36.97
2018-04-14T19:14:00.618Z,35.80
2018-04-14T19:16:03.393Z,38.20
2018-04-14T19:18:06.190Z,35.40
2018-04-14T19:20:08.982Z,38.77
2018-04-14T19:22:11.769Z,36.57
2018-04-14T19:24:14.526Z,39.47
2018-04-14T19:26:17.293Z,36.80
2018-04-14T19:28:20.351Z,35.90
2018-04-14T19:30:23.167Z,38.07
2018-04-14T19:32:26.034Z,35.37
2018-04-14T19:34:30.173Z,38.47
2018-04-14T19:36:32.973Z,38.70
2018-04-14T19:38:35.754Z,37.40
2018-04-14T19:40:38.906Z,37.30
2018-04-14T19:42:41.784Z,38.20
2018-04-14T19:44:45.974Z,36.53
2018-04-14T19:46:48.870Z,38.53
2018-04-14T19:48:54.789Z,38.43
2018-04-14T19:50:57.594Z,41.50
2018-04-14T19:53:00.375Z,40.28
2018-04-14T19:55:03.182Z,39.20
2018-04-14T19:57:05.935Z,38.53
2018-04-14T19:59:08.710Z,39.33
2018-04-14T20:01:11.556Z,40.03
2018-04-14T20:03:14.333Z,38.27
2018-04-14T20:05:17.107Z,41.30
2018-04-14T20:07:19.905Z,41.20
2018-04-14T20:09:22.662Z,41.70
2018-04-14T20:11:25.431Z,41.47
2018-04-14T20:13:28.236Z,40.20
2018-04-14T20:15:30.987Z,41.90
2018-04-14T20:17:33.742Z,39.97
2018-04-14T20:19:36.539Z,40.67
2018-04-14T20:21:39.316Z,40.70
2018-04-14T20:23:42.083Z,40.53
2018-04-14T20:25:44.826Z,42.37
2018-04-14T20:27:47.582Z,43.00
2018-04-14T20:29:50.360Z,44.67
2018-04-14T20:31:53.163Z,41.97
2018-04-14T20:33:55.986Z,43.63
2018-04-14T20:35:58.746Z,42.13
2018-04-14T20:38:01.558Z,43.30
2018-04-14T20:40:04.369Z,41.63
2018-04-14T20:42:07.158Z,44.93
2018-04-14T20:44:09.939Z,42.13
2018-04-14T20:46:12.802Z,45.83
2018-04-14T20:48:16.131Z,43.57
2018-04-14T20:50:18.966Z,41.07
2018-04-14T20:52:21.919Z,44.00
2018-04-14T20:54:25.307Z,42.70
2018-04-14T20:56:28.059Z,44.97
2018-04-14T20:58:30.808Z,43.30
2018-04-14T21:00:33.573Z,43.57
2018-04-14T21:02:36.455Z,45.17
2018-04-14T21:04:39.272Z,42.37
2018-04-14T21:06:42.014Z,45.20
2018-04-14T21:08:44.819Z,43.50
2018-04-14T21:10:47.582Z,45.53
2018-04-14T21:12:50.324Z,49.27
2018-04-14T21:14:53.451Z,48.60
2018-04-14T21:16:56.218Z,45.63
2018-04-14T21:18:59.060Z,42.90
2018-04-14T21:21:01.774Z,49.20
2018-04-14T21:23:04.559Z,46.67
2018-04-14T21:25:07.313Z,41.20
2018-04-14T21:27:10.101Z,43.40
2018-04-14T21:29:12.978Z,45.63
2018-04-14T21:31:15.738Z,45.17
2018-04-14T21:33:19.022Z,46.53
2018-04-14T21:35:23.160Z,46.67
2018-04-14T21:37:26.018Z,45.17
2018-04-14T21:39:28.781Z,64.73
2018-04-14T21:41:31.554Z,49.90
2018-04-14T21:43:34.286Z,43.97
2018-04-14T21:45:37.018Z,44.67
2018-04-14T21:47:40.261Z,45.27
2018-04-14T21:49:42.987Z,46.80
2018-04-14T21:51:45.714Z,47.90
2018-04-14T21:53:48.531Z,42.77
2018-04-14T21:55:51.383Z,44.97
2018-04-14T21:57:54.111Z,47.07
2018-04-14T21:59:56.842Z,45.97
2018-04-14T22:01:59.630Z,46.23
2018-04-14T22:04:02.363Z,46.80
2018-04-14T22:06:05.129Z,46.43
2018-04-14T22:08:08.307Z,45.77
2018-04-14T22:10:11.076Z,44.80
2018-04-14T22:12:13.829Z,46.20
2018-04-14T22:14:22.714Z,45.17
2018-04-14T22:16:25.431Z,45.67
2018-04-14T22:18:28.178Z,46.20
2018-04-14T22:20:31.002Z,44.57
2018-04-14T22:22:33.730Z,44.70
2018-04-14T22:24:36.450Z,46.50
2018-04-14T22:26:39.315Z,45.13
2018-04-14T22:28:42.041Z,47.00
2018-04-14T22:30:44.774Z,47.43
2018-04-14T22:32:47.856Z,47.80
2018-04-14T22:34:50.603Z,48.20
2018-04-14T22:36:53.329Z,48.90
2018-04-14T22:38:56.091Z,46.70
2018-04-14T22:40:58.806Z,44.30
2018-04-14T22:43:01.530Z,44.43
2018-04-14T22:45:04.253Z,50.10
2018-04-14T22:47:07.030Z,45.03
2018-04-14T22:49:09.777Z,45.93
2018-04-14T22:51:12.544Z,46.70
2018-04-14T22:53:15.257Z,46.20
2018-04-14T22:55:18.001Z,47.10
2018-04-14T22:57:21.143Z,46.63
2018-04-14T22:59:23.863Z,49.10
2018-04-14T23:01:26.602Z,48.83
2018-04-14T23:03:29.382Z,47.73
2018-04-14T23:05:32.135Z,47.93
2018-04-14T23:07:34.875Z,46.00
2018-04-14T23:09:37.752Z,47.23
2018-04-14T23:11:40.653Z,47.90
2018-04-14T23:13:43.409Z,46.57
2018-04-14T23:15:46.405Z,47.37
2018-04-14T23:17:49.152Z,46.40
2018-04-14T23:19:52.577Z,50.80
2018-04-14T23:21:55.319Z,48.73
2018-04-14T23:23:58.047Z,48.13
2018-04-14T23:26:00.815Z,47.27
2018-04-14T23:28:03.729Z,46.57
2018-04-14T23:30:06.475Z,47.33
2018-04-14T23:32:09.202Z,47.10
2018-04-14T23:34:12.248Z,48.10
2018-04-14T23:36:14.988Z,47.23
2018-04-14T23:38:17.720Z,46.80
2018-04-14T23:40:20.800Z,49.40
2018-04-14T23:42:23.522Z,48.77
2018-04-14T23:44:26.269Z,46.77
2018-04-14T23:46:29.027Z,49.07
2018-04-14T23:48:32.748Z,46.17
2018-04-14T23:50:35.517Z,47.83
2018-04-14T23:52:38.603Z,48.67
2018-04-14T23:54:41.346Z,48.27
2018-04-14T23:56:44.087Z,50.27
2018-04-14T23:58:46.820Z,50.97
